Time;durP1;ratioP1;P1;durP2;ratioP2;P2;SDS_P1;SDS_P2;PMS_P1;PMS_P2;Temp;Humidity;BMP_temperature;BMP_pressure;BME280_temperature;BME280_humidity;BME280_pressure;Samples;Min_cycle;Max_cycle;Signal;HPM_P1;HPM_P2
2021/06/22 00:01:00;;;;;;;1.30;1.20;;;26.00;86.20;;;;;;5109724;28;20200;-78
2021/06/22 00:03:28;;;;;;;1.02;1.02;;;26.00;86.50;;;;;;5115451;27;20200;-78
2021/06/22 00:05:56;;;;;;;1.48;1.02;;;26.00;86.80;;;;;;5111993;27;20585;-77
2021/06/22 00:08:24;;;;;;;1.13;1.13;;;26.00;87.10;;;;;;5119593;27;20191;-78
2021/06/22 00:10:51;;;;;;;1.30;1.13;;;26.00;87.40;;;;;;5119576;27;20311;-77
2021/06/22 00:13:18;;;;;;;1.40;1.30;;;25.90;87.70;;;;;;5121422;27;20199;-78
2021/06/22 00:15:46;;;;;;;1.40;1.30;;;25.90;88.80;;;;;;5117729;27;20222;-78
2021/06/22 00:18:13;;;;;;;1.33;1.23;;;25.80;88.40;;;;;;5119080;27;20224;-79
2021/06/22 00:20:40;;;;;;;3.15;1.30;;;25.80;88.80;;;;;;5111184;27;20230;-78
2021/06/22 00:23:09;;;;;;;1.52;1.10;;;25.80;89.10;;;;;;5111104;27;20192;-78
2021/06/22 00:25:36;;;;;;;1.10;1.10;;;25.80;89.40;;;;;;5110352;27;20224;-78
2021/06/22 00:28:03;;;;;;;1.50;1.40;;;25.70;89.60;;;;;;5110974;27;20280;-78
2021/06/22 00:30:31;;;;;;;3.70;1.50;;;25.70;90.00;;;;;;5109754;28;20200;-78
2021/06/22 00:36:41;;;;;;;1.05;1.05;;;25.70;90.20;;;;;;5109609;27;20190;-79
2021/06/22 00:39:10;;;;;;;1.50;1.40;;;25.70;90.50;;;;;;5109545;28;20204;-79
2021/06/22 00:41:37;;;;;;;1.60;1.50;;;25.60;90.60;;;;;;5111522;27;20199;-79
2021/06/22 00:44:05;;;;;;;1.70;1.60;;;25.60;90.80;;;;;;5107487;28;20654;-79
2021/06/22 00:46:32;;;;;;;1.58;1.48;;;25.60;90.90;;;;;;5096399;28;20207;-79
2021/06/22 00:49:00;;;;;;;1.67;1.58;;;25.60;91.10;;;;;;5108796;27;20200;-78
2021/06/22 00:51:27;;;;;;;1.60;1.45;;;25.60;91.30;;;;;;5111264;27;20398;-79
2021/06/22 00:53:56;;;;;;;1.33;1.33;;;25.60;91.50;;;;;;5111300;27;20200;-79
2021/06/22 00:56:25;;;;;;;1.60;1.50;;;25.50;91.60;;;;;;5109445;28;20204;-78
2021/06/22 00:58:52;;;;;;;1.80;1.70;;;25.60;91.80;;;;;;5108448;28;20598;-79
2021/06/22 01:01:20;;;;;;;4.28;1.50;;;25.50;91.90;;;;;;5090846;28;20200;-78
2021/06/22 01:07:29;;;;;;;1.85;1.70;;;25.50;92.30;;;;;;5110600;28;20195;-78
2021/06/22 01:09:58;;;;;;;1.85;1.73;;;25.50;92.50;;;;;;5110251;28;20196;-78
2021/06/22 01:12:26;;;;;;;1.73;1.63;;;25.40;92.80;;;;;;5107420;28;20577;-79
2021/06/22 01:14:53;;;;;;;2.03;1.90;;;25.40;92.90;;;;;;5108426;28;20280;-78
2021/06/22 01:17:21;;;;;;;2.28;1.80;;;25.40;93.20;;;;;;5108571;28;20552;-78
2021/06/22 01:19:48;;;;;;;1.80;1.70;;;25.30;93.40;;;;;;5109283;27;20920;-78
2021/06/22 01:22:17;;;;;;;2.80;2.60;;;25.30;93.60;;;;;;5108707;28;20232;-79
2021/06/22 01:24:46;;;;;;;4.50;3.42;;;25.20;93.90;;;;;;5107283;27;20588;-79
2021/06/22 01:27:15;;;;;;;4.10;3.70;;;25.20;94.10;;;;;;5109528;28;20195;-79
2021/06/22 01:29:42;;;;;;;3.67;3.38;;;25.20;94.30;;;;;;5110133;27;20211;-79
2021/06/22 01:32:10;;;;;;;3.78;3.40;;;25.10;94.40;;;;;;5123127;27;20302;-79
2021/06/22 01:34:43;;;;;;;3.13;2.92;;;25.10;94.60;;;;;;5118870;27;20211;-79
2021/06/22 01:37:11;;;;;;;3.30;2.40;;;25.00;94.90;;;;;;5105205;28;20209;-78
2021/06/22 01:39:46;;;;;;;2.17;2.08;;;25.00;95.00;;;;;;5106934;28;20195;-79
2021/06/22 01:42:13;;;;;;;2.78;1.90;;;25.00;95.20;;;;;;5108650;28;20211;-79
2021/06/22 01:44:46;;;;;;;1.85;1.75;;;25.00;95.40;;;;;;5107560;28;20216;-78
2021/06/22 01:47:15;;;;;;;1.88;1.75;;;25.00;95.60;;;;;;5107874;28;20732;-79
2021/06/22 01:49:44;;;;;;;1.73;1.63;;;24.90;95.70;;;;;;5108379;28;20298;-79
2021/06/22 01:52:15;;;;;;;2.97;2.05;;;24.90;95.90;;;;;;5126910;27;20658;-79
2021/06/22 01:54:43;;;;;;;2.30;2.10;;;24.80;96.20;;;;;;5108371;28;20632;-78
2021/06/22 01:57:11;;;;;;;2.25;1.77;;;24.80;96.50;;;;;;5107542;28;20611;-78
2021/06/22 01:59:46;;;;;;;2.25;1.75;;;24.70;96.60;;;;;;5107788;28;20671;-78
2021/06/22 02:02:23;;;;;;;1.77;1.67;;;24.70;96.80;;;;;;5107139;28;20211;-78
2021/06/22 02:05:04;;;;;;;1.98;1.70;;;24.70;97.00;;;;;;5107909;28;20315;-78
2021/06/22 02:07:33;;;;;;;1.92;1.60;;;24.70;97.30;;;;;;5107959;28;20210;-78
2021/06/22 02:10:19;;;;;;;3.03;2.20;;;24.60;97.50;;;;;;5113620;27;20201;-77
2021/06/22 02:13:08;;;;;;;1.98;1.83;;;24.50;97.90;;;;;;5108285;28;20215;-78
2021/06/22 02:15:37;;;;;;;1.60;1.50;;;24.50;98.10;;;;;;5119271;27;20203;-79
2021/06/22 02:18:06;;;;;;;2.22;1.60;;;24.40;98.20;;;;;;5115532;27;20203;-79
2021/06/22 02:20:37;;;;;;;1.40;1.40;;;24.40;98.50;;;;;;5120588;27;20243;-79
2021/06/22 02:23:05;;;;;;;1.42;1.33;;;24.40;98.70;;;;;;5118449;27;20203;-79
2021/06/22 02:25:33;;;;;;;1.48;1.40;;;24.30;98.80;;;;;;5123567;27;20227;-78
2021/06/22 02:28:05;;;;;;;1.75;1.65;;;24.30;99.00;;;;;;5116498;28;20587;-78
2021/06/22 02:30:35;;;;;;;1.20;1.20;;;24.20;99.10;;;;;;5118204;28;20866;-79
2021/06/22 02:33:03;;;;;;;1.40;1.40;;;24.20;99.30;;;;;;5117699;28;20188;-79
2021/06/22 02:35:31;;;;;;;1.67;1.58;;;24.20;99.50;;;;;;5118432;28;20757;-79
2021/06/22 02:38:04;;;;;;;1.73;1.63;;;24.10;99.70;;;;;;5106483;28;20200;-78
2021/06/22 02:40:33;;;;;;;1.60;1.50;;;24.10;99.90;;;;;;5108208;28;20274;-78
2021/06/22 02:43:03;;;;;;;1.30;1.30;;;24.10;99.90;;;;;;5107994;28;20235;-78
2021/06/22 02:45:33;;;;;;;1.40;1.30;;;24.10;99.90;;;;;;5106471;28;20220;-78
2021/06/22 02:48:06;;;;;;;1.60;1.50;;;24.10;99.90;;;;;;5108575;28;20549;-78
2021/06/22 02:50:34;;;;;;;1.45;1.30;;;24.10;99.90;;;;;;5108504;28;20303;-78
2021/06/22 02:53:03;;;;;;;1.85;1.75;;;24.10;99.90;;;;;;5109288;27;20218;-78
2021/06/22 02:55:31;;;;;;;1.60;1.50;;;24.10;99.90;;;;;;5107353;28;20332;-78
2021/06/22 02:58:04;;;;;;;1.58;1.48;;;24.10;99.90;;;;;;5099630;28;20249;-78
2021/06/22 03:00:33;;;;;;;1.98;1.80;;;24.00;99.90;;;;;;5105802;28;20322;-78
2021/06/22 03:03:07;;;;;;;1.73;1.38;;;24.00;99.90;;;;;;5124356;27;20230;-78
2021/06/22 03:05:39;;;;;;;1.40;1.40;;;24.00;99.90;;;;;;5106835;28;20227;-79
2021/06/22 03:08:08;;;;;;;1.50;1.40;;;24.00;99.90;;;;;;5107783;28;20211;-79
2021/06/22 03:10:38;;;;;;;1.63;1.52;;;24.00;99.90;;;;;;5107094;28;20200;-79
2021/06/22 03:13:06;;;;;;;1.38;1.27;;;24.00;99.90;;;;;;5106228;28;20820;-78
2021/06/22 03:15:34;;;;;;;1.08;1.08;;;24.10;99.90;;;;;;5105294;28;20224;-78
2021/06/22 03:18:01;;;;;;;2.15;1.15;;;24.10;99.90;;;;;;5109071;28;20199;-79
2021/06/22 03:20:35;;;;;;;1.50;1.40;;;24.10;99.90;;;;;;5112577;28;20307;-78
2021/06/22 03:23:06;;;;;;;4.30;1.63;;;24.10;99.90;;;;;;5108939;28;20242;-78
2021/06/22 03:25:34;;;;;;;2.17;1.15;;;24.10;99.90;;;;;;5114661;28;20215;-78
2021/06/22 03:28:05;;;;;;;1.25;1.25;;;24.20;99.90;;;;;;5107672;28;20216;-78
2021/06/22 03:30:39;;;;;;;1.02;1.00;;;24.20;99.90;;;;;;5107083;28;20196;-79
2021/06/22 03:33:06;;;;;;;0.93;0.93;;;24.20;99.90;;;;;;5110104;28;20235;-79
2021/06/22 03:35:34;;;;;;;1.40;1.30;;;24.20;99.90;;;;;;5121220;27;20191;-79
2021/06/22 03:38:01;;;;;;;1.08;1.08;;;24.30;99.90;;;;;;5110685;28;20282;-78
2021/06/22 03:40:31;;;;;;;1.02;1.02;;;24.30;99.90;;;;;;5110798;28;20235;-78
2021/06/22 03:42:59;;;;;;;1.20;1.10;;;24.30;99.90;;;;;;5110989;28;20235;-78
2021/06/22 03:45:27;;;;;;;0.90;0.90;;;24.40;99.90;;;;;;5109387;28;20412;-78
2021/06/22 03:47:55;;;;;;;1.10;1.10;;;24.40;99.90;;;;;;5113670;27;20210;-79
2021/06/22 03:50:23;;;;;;;1.05;1.05;;;24.50;99.90;;;;;;5110927;28;20196;-79
2021/06/22 03:52:53;;;;;;;1.20;1.20;;;24.50;99.90;;;;;;5110208;28;20191;-79
2021/06/22 03:55:29;;;;;;;0.93;0.93;;;24.50;99.90;;;;;;5111713;28;20195;-79
2021/06/22 03:58:17;;;;;;;1.25;1.20;;;24.50;99.90;;;;;;5110883;27;20273;-78
2021/06/22 04:00:52;;;;;;;1.15;1.13;;;24.60;99.90;;;;;;5113072;27;20198;-79
2021/06/22 04:03:26;;;;;;;1.42;1.35;;;24.60;99.90;;;;;;5110157;28;20227;-79
2021/06/22 04:06:19;;;;;;;2.05;1.45;;;24.60;99.90;;;;;;5112605;27;20239;-78
2021/06/22 04:08:51;;;;;;;2.78;1.50;;;24.70;99.90;;;;;;5115107;27;20200;-78
2021/06/22 04:11:22;;;;;;;1.55;1.48;;;24.70;99.90;;;;;;5115526;27;20714;-79
2021/06/22 04:13:49;;;;;;;1.42;1.33;;;24.70;99.90;;;;;;5113981;27;20222;-79
2021/06/22 04:16:18;;;;;;;1.60;1.50;;;24.70;99.90;;;;;;5109029;27;20315;-79
2021/06/22 04:18:47;;;;;;;2.83;1.95;;;24.70;99.90;;;;;;5110468;28;20303;-79
2021/06/22 04:21:19;;;;;;;2.10;2.00;;;24.80;99.90;;;;;;5109657;28;20298;-79
2021/06/22 04:23:48;;;;;;;1.60;1.50;;;24.80;99.90;;;;;;5104253;28;20307;-78
2021/06/22 04:26:17;;;;;;;2.00;1.83;;;24.80;99.90;;;;;;5110556;27;20299;-78
2021/06/22 04:28:45;;;;;;;2.50;2.30;;;24.80;99.90;;;;;;5108837;27;20298;-79
2021/06/22 04:31:13;;;;;;;2.80;2.60;;;24.80;99.90;;;;;;5108969;27;20563;-79
2021/06/22 04:33:41;;;;;;;2.22;2.08;;;24.80;99.90;;;;;;5111558;27;20196;-79
2021/06/22 04:36:08;;;;;;;2.30;2.20;;;24.70;99.90;;;;;;5115736;27;20217;-79
2021/06/22 04:38:36;;;;;;;3.25;2.17;;;24.80;99.90;;;;;;5117298;27;20243;-80
2021/06/22 04:41:03;;;;;;;2.78;2.40;;;24.80;99.90;;;;;;5110935;28;20196;-80
2021/06/22 04:43:31;;;;;;;2.47;2.15;;;24.80;99.90;;;;;;5108556;28;20299;-80
2021/06/22 04:45:58;;;;;;;2.70;2.50;;;24.80;99.90;;;;;;5108694;27;20730;-77
2021/06/22 04:48:25;;;;;;;4.60;2.50;;;24.80;99.90;;;;;;5109108;27;20215;-78
2021/06/22 04:50:57;;;;;;;2.53;2.05;;;24.90;99.90;;;;;;5123176;27;20303;-80
2021/06/22 04:53:25;;;;;;;2.25;2.10;;;25.00;99.90;;;;;;5110997;28;20196;-79
2021/06/22 04:55:52;;;;;;;2.22;2.05;;;25.00;99.90;;;;;;5114320;27;20230;-79
2021/06/22 04:58:19;;;;;;;2.45;2.30;;;25.10;99.90;;;;;;5113076;27;20659;-78
2021/06/22 05:00:47;;;;;;;3.78;2.55;;;25.10;99.90;;;;;;5112103;27;20298;-78
2021/06/22 05:03:15;;;;;;;2.92;2.17;;;25.10;99.90;;;;;;5112890;27;20266;-78
2021/06/22 05:05:42;;;;;;;2.95;1.90;;;25.20;99.90;;;;;;5116478;27;20222;-79
2021/06/22 05:08:09;;;;;;;1.90;1.80;;;25.20;99.90;;;;;;5110583;28;20215;-79
2021/06/22 05:10:36;;;;;;;3.45;1.95;;;25.30;99.90;;;;;;5113511;27;20742;-79
2021/06/22 05:13:03;;;;;;;1.90;1.80;;;25.30;99.90;;;;;;5113348;27;20230;-79
2021/06/22 05:15:30;;;;;;;1.50;1.40;;;25.40;99.90;;;;;;5106280;28;20211;-79
2021/06/22 05:17:58;;;;;;;2.00;1.90;;;25.50;99.90;;;;;;5110711;28;20194;-79
2021/06/22 05:20:25;;;;;;;2.45;2.25;;;25.60;99.90;;;;;;5109042;28;20215;-79
2021/06/22 05:22:52;;;;;;;4.05;2.15;;;25.60;99.90;;;;;;5108254;28;20461;-79
2021/06/22 05:25:19;;;;;;;2.30;2.10;;;25.70;99.90;;;;;;5110075;27;20566;-78
2021/06/22 05:27:46;;;;;;;2.70;2.50;;;25.70;99.90;;;;;;5108334;28;20204;-79
2021/06/22 05:30:15;;;;;;;3.35;2.67;;;25.80;99.90;;;;;;5107575;28;20206;-79
2021/06/22 05:32:42;;;;;;;2.95;2.42;;;25.90;99.90;;;;;;5132971;27;20267;-78
2021/06/22 05:35:12;;;;;;;2.40;2.20;;;25.90;99.90;;;;;;5100727;28;20228;-79
2021/06/22 05:37:40;;;;;;;4.60;2.35;;;26.00;99.90;;;;;;5109362;27;20219;-78
2021/06/22 05:40:08;;;;;;;2.00;1.90;;;26.00;99.90;;;;;;5109221;27;20207;-78
2021/06/22 05:42:35;;;;;;;2.25;2.00;;;26.10;99.90;;;;;;5107828;28;20299;-80
2021/06/22 05:45:06;;;;;;;2.42;2.22;;;26.20;99.90;;;;;;5107573;28;20231;-78
2021/06/22 05:47:33;;;;;;;2.63;2.17;;;26.20;99.90;;;;;;5108533;28;20239;-79
2021/06/22 05:50:01;;;;;;;2.47;2.28;;;26.40;99.90;;;;;;5100898;27;20287;-78
2021/06/22 05:52:29;;;;;;;2.78;2.55;;;26.40;99.90;;;;;;5110975;28;20234;-79
2021/06/22 05:54:56;;;;;;;2.70;2.50;;;26.50;99.90;;;;;;5110638;28;20195;-78
2021/06/22 05:57:23;;;;;;;3.22;2.22;;;26.50;99.90;;;;;;5110397;27;20690;-79
2021/06/22 05:59:50;;;;;;;2.00;1.90;;;26.70;99.90;;;;;;5107417;28;20204;-78
2021/06/22 06:02:17;;;;;;;2.25;2.05;;;26.80;99.60;;;;;;5108187;28;20212;-79
2021/06/22 06:04:44;;;;;;;2.50;2.40;;;27.00;99.40;;;;;;5101650;28;20565;-79
2021/06/22 06:07:11;;;;;;;2.38;2.28;;;27.20;99.10;;;;;;5107135;28;20220;-80
2021/06/22 06:09:40;;;;;;;2.72;2.05;;;27.40;98.80;;;;;;5106326;28;20287;-78
2021/06/22 06:12:08;;;;;;;2.33;2.20;;;27.60;98.50;;;;;;5105357;27;20259;-79
2021/06/22 06:14:35;;;;;;;2.35;2.25;;;27.80;98.20;;;;;;5106331;28;20203;-78
2021/06/22 06:17:02;;;;;;;2.40;2.30;;;28.10;97.80;;;;;;5105709;28;20211;-79
2021/06/22 06:19:29;;;;;;;4.07;2.38;;;29.40;96.30;;;;;;5108178;28;20206;-78
2021/06/22 06:21:56;;;;;;;2.10;2.00;;;31.40;93.10;;;;;;5109230;27;20200;-78
2021/06/22 06:24:23;;;;;;;2.15;2.05;;;33.30;88.40;;;;;;5099012;27;20268;-77
2021/06/22 06:27:02;;;;;;;1.98;1.88;;;34.80;80.00;;;;;;5101112;28;20211;-77
2021/06/22 06:29:36;;;;;;;2.20;2.10;;;36.20;73.40;;;;;;5088811;28;20211;-77
2021/06/22 06:32:03;;;;;;;2.03;1.92;;;37.50;67.40;;;;;;5098637;28;20191;-79
2021/06/22 06:34:30;;;;;;;2.10;2.00;;;38.80;62.60;;;;;;5104348;28;20215;-78
2021/06/22 06:36:58;;;;;;;2.80;2.15;;;40.00;58.70;;;;;;5097781;28;20192;-77
2021/06/22 06:39:25;;;;;;;4.32;2.38;;;41.10;55.30;;;;;;5111598;28;20195;-79
2021/06/22 06:41:53;;;;;;;3.63;2.30;;;42.10;52.30;;;;;;5111816;28;20202;-79
2021/06/22 06:44:20;;;;;;;5.53;2.60;;;43.00;49.90;;;;;;5120480;28;20186;-74
2021/06/22 06:46:48;;;;;;;3.45;2.80;;;43.80;47.80;;;;;;5111276;28;20219;-79
2021/06/22 06:49:15;;;;;;;2.95;2.63;;;44.50;46.00;;;;;;5108462;28;20222;-81
2021/06/22 06:51:42;;;;;;;2.80;2.60;;;45.00;44.40;;;;;;5113359;28;20226;-81
2021/06/22 06:54:09;;;;;;;3.25;2.95;;;45.50;43.10;;;;;;5130789;27;20293;-79
2021/06/22 06:56:36;;;;;;;3.08;2.88;;;46.00;41.70;;;;;;5103941;28;20275;-80
2021/06/22 06:59:05;;;;;;;2.92;2.72;;;46.10;41.30;;;;;;5110947;28;20198;-79
2021/06/22 07:01:32;;;;;;;3.25;2.97;;;46.30;39.90;;;;;;5102633;28;20199;-78
2021/06/22 07:03:59;;;;;;;3.25;2.65;;;46.50;39.20;;;;;;5115092;28;20294;-76
2021/06/22 07:06:26;;;;;;;3.58;2.80;;;46.60;38.80;;;;;;5101574;28;20245;-80
2021/06/22 07:08:53;;;;;;;2.92;2.70;;;46.60;38.30;;;;;;5108278;27;20210;-79
2021/06/22 07:11:21;;;;;;;3.28;2.97;;;46.20;38.30;;;;;;5118484;27;20771;-79
2021/06/22 07:13:49;;;;;;;3.30;3.10;;;46.10;38.10;;;;;;5110482;27;20215;-79
2021/06/22 07:16:28;;;;;;;2.83;2.72;;;46.00;38.00;;;;;;5108550;27;20187;-80
2021/06/22 07:18:55;;;;;;;3.03;2.78;;;45.40;38.00;;;;;;5111006;27;20236;-78
2021/06/22 07:21:42;;;;;;;3.30;3.10;;;44.30;38.70;;;;;;5107103;28;20202;-82
2021/06/22 07:33:20;;;;;;;3.58;3.28;;;39.30;44.00;;;;;;4952630;28;20365;-80
2021/06/22 07:35:47;;;;;;;3.65;3.45;;;38.40;45.00;;;;;;4963741;28;20242;-80
2021/06/22 07:38:14;;;;;;;3.10;2.90;;;37.80;45.80;;;;;;4967749;28;20247;-79
2021/06/22 07:45:04;;;;;;;3.25;2.95;;;36.70;47.10;;;;;;4901949;29;20728;-84
2021/06/22 07:48:04;;;;;;;3.25;2.95;;;35.70;47.50;;;;;;4878772;29;20225;-80
2021/06/22 07:50:37;;;;;;;3.67;3.35;;;35.90;48.50;;;;;;4901618;29;20241;-83
2021/06/22 07:53:05;;;;;;;3.50;3.30;;;35.60;49.00;;;;;;4900954;29;20209;-81
2021/06/22 07:55:35;;;;;;;5.47;3.90;;;35.30;49.30;;;;;;4913653;29;20646;-84
2021/06/22 07:58:05;;;;;;;3.17;2.97;;;35.10;49.50;;;;;;4955143;28;20235;-83
2021/06/22 08:00:41;;;;;;;5.65;3.45;;;34.80;50.00;;;;;;4970726;28;20237;-81
2021/06/22 08:03:10;;;;;;;4.10;3.70;;;34.50;50.40;;;;;;4973976;28;20627;-81
2021/06/22 08:05:38;;;;;;;9.80;3.70;;;34.30;50.90;;;;;;4988675;28;20203;-79
2021/06/22 08:08:07;;;;;;;4.30;3.35;;;34.10;51.10;;;;;;5043291;28;20252;-81
2021/06/22 08:10:34;;;;;;;3.47;3.22;;;34.00;51.50;;;;;;5039410;28;20700;-81
2021/06/22 08:13:02;;;;;;;3.78;3.38;;;33.90;51.70;;;;;;5050517;28;20535;-83
2021/06/22 08:15:29;;;;;;;7.60;4.18;;;33.70;51.90;;;;;;5031798;28;20298;-79
2021/06/22 08:17:58;;;;;;;8.90;3.60;;;33.70;52.10;;;;;;5026193;28;20600;-80
2021/06/22 08:20:26;;;;;;;6.57;3.50;;;33.60;52.20;;;;;;5038508;28;20204;-73
2021/06/22 08:22:55;;;;;;;3.58;3.10;;;33.70;52.40;;;;;;5109471;27;20230;-71
2021/06/22 08:25:23;;;;;;;3.05;2.85;;;33.70;52.40;;;;;;5108745;27;20187;-72
2021/06/22 08:27:50;;;;;;;4.00;3.17;;;33.70;52.50;;;;;;5097401;28;20677;-73
2021/06/22 08:30:19;;;;;;;3.50;3.13;;;33.70;52.30;;;;;;5105647;27;20249;-72
2021/06/22 08:32:46;;;;;;;2.33;2.22;;;33.70;52.40;;;;;;5109717;27;20196;-72
2021/06/22 08:35:13;;;;;;;5.10;2.78;;;33.80;52.50;;;;;;5107439;27;20637;-72
2021/06/22 08:37:41;;;;;;;3.17;2.97;;;33.80;52.50;;;;;;5105858;27;20426;-73
2021/06/22 08:40:11;;;;;;;13.27;3.78;;;33.90;52.50;;;;;;5109069;27;20199;-72
2021/06/22 08:42:39;;;;;;;15.82;4.45;;;34.00;52.40;;;;;;5111147;27;20617;-72
2021/06/22 08:45:09;;;;;;;18.15;4.95;;;34.00;52.30;;;;;;5108049;27;20258;-71
2021/06/22 08:47:36;;;;;;;14.32;5.40;;;33.80;52.70;;;;;;5107376;27;20275;-71
2021/06/22 08:50:05;;;;;;;13.32;5.20;;;33.80;53.30;;;;;;5108802;27;20225;-71
2021/06/22 08:52:35;;;;;;;14.27;4.95;;;33.70;54.00;;;;;;5107194;27;20191;-71
2021/06/22 08:55:06;;;;;;;13.02;4.95;;;33.70;54.40;;;;;;5109753;27;20226;-75
2021/06/22 08:57:36;;;;;;;13.27;4.68;;;33.70;54.50;;;;;;5116744;27;20776;-73
2021/06/22 09:00:05;;;;;;;7.18;4.45;;;33.70;54.70;;;;;;5101192;27;20192;-73
2021/06/22 09:02:35;;;;;;;6.10;4.70;;;33.40;55.00;;;;;;5112003;27;20287;-73
2021/06/22 09:05:06;;;;;;;14.30;5.43;;;33.10;55.40;;;;;;5105130;27;20288;-75
2021/06/22 09:07:47;;;;;;;4.10;3.63;;;32.90;56.00;;;;;;5107527;27;20215;-74
2021/06/22 09:10:23;;;;;;;4.38;3.97;;;32.80;56.30;;;;;;5103579;28;20248;-75
2021/06/22 09:12:52;;;;;;;15.30;5.40;;;32.70;56.80;;;;;;5107919;27;20254;-74
2021/06/22 09:15:25;;;;;;;8.85;4.60;;;32.50;57.10;;;;;;5103187;28;20199;-75
2021/06/22 09:17:53;;;;;;;13.20;4.80;;;32.40;57.50;;;;;;5106744;27;20219;-74
2021/06/22 09:20:40;;;;;;;6.88;4.10;;;32.30;57.80;;;;;;5104982;28;20652;-73
2021/06/22 09:23:17;;;;;;;3.88;3.53;;;32.30;58.00;;;;;;5101326;28;20192;-73
2021/06/22 09:25:45;;;;;;;8.98;4.57;;;32.30;58.10;;;;;;5105515;27;20203;-72
2021/06/22 09:28:14;;;;;;;13.20;4.20;;;32.30;58.40;;;;;;5103389;27;20188;-73
2021/06/22 09:30:46;;;;;;;5.78;3.40;;;32.30;58.70;;;;;;5106863;27;20192;-74
2021/06/22 09:33:25;;;;;;;6.55;4.25;;;32.30;58.70;;;;;;5106651;27;20203;-74
2021/06/22 09:35:59;;;;;;;8.77;4.03;;;32.40;58.90;;;;;;5116786;27;20725;-73
2021/06/22 09:38:32;;;;;;;9.50;3.75;;;32.30;58.80;;;;;;5107089;27;20520;-75
2021/06/22 09:41:08;;;;;;;5.55;4.13;;;32.20;59.00;;;;;;5107962;28;20258;-73
2021/06/22 09:43:42;;;;;;;5.55;4.03;;;32.30;59.10;;;;;;5108704;27;20559;-74
2021/06/22 09:46:10;;;;;;;5.18;4.25;;;32.30;59.10;;;;;;5105666;27;20207;-72
2021/06/22 09:48:47;;;;;;;7.18;4.18;;;32.20;59.30;;;;;;5113801;27;20205;-73
2021/06/22 09:51:14;;;;;;;4.97;3.70;;;32.20;59.50;;;;;;5108675;27;20211;-73
2021/06/22 09:53:41;;;;;;;5.00;3.88;;;32.40;59.50;;;;;;5107465;27;20643;-72
2021/06/22 09:56:21;;;;;;;8.38;4.13;;;32.40;59.40;;;;;;5103972;28;20200;-73
2021/06/22 09:58:50;;;;;;;8.38;4.28;;;32.50;59.40;;;;;;5103045;27;20224;-73
2021/06/22 10:01:32;;;;;;;7.30;4.00;;;32.50;59.30;;;;;;5105188;27;20202;-73
2021/06/22 10:04:17;;;;;;;8.27;4.15;;;32.60;59.10;;;;;;5106722;27;20199;-73
2021/06/22 10:06:49;;;;;;;8.15;4.65;;;32.60;59.00;;;;;;5099845;28;20667;-74
2021/06/22 10:09:21;;;;;;;10.57;4.43;;;32.60;58.80;;;;;;5105891;28;20188;-75
2021/06/22 10:11:48;;;;;;;4.05;3.40;;;32.70;58.70;;;;;;5103662;28;20730;-74
2021/06/22 10:14:26;;;;;;;7.93;4.03;;;32.80;58.80;;;;;;5101701;28;20238;-73
2021/06/22 10:16:54;;;;;;;7.78;3.97;;;32.90;58.30;;;;;;5113972;27;20196;-71
2021/06/22 10:19:23;;;;;;;6.45;4.20;;;32.90;58.30;;;;;;5105687;27;20270;-71
2021/06/22 10:21:52;;;;;;;7.50;4.32;;;33.10;58.00;;;;;;5107208;28;20188;-71
2021/06/22 10:24:20;;;;;;;9.43;3.83;;;33.20;57.60;;;;;;5105753;28;20188;-76
2021/06/22 10:26:48;;;;;;;7.95;4.18;;;33.30;57.20;;;;;;5103033;28;20218;-77
2021/06/22 10:29:18;;;;;;;8.88;4.30;;;33.40;56.60;;;;;;5101573;28;20223;-77
2021/06/22 10:31:48;;;;;;;4.38;3.40;;;33.50;56.20;;;;;;5098764;28;20215;-70
2021/06/22 10:34:16;;;;;;;8.02;4.45;;;33.60;55.70;;;;;;5097202;28;20200;-71
2021/06/22 10:36:51;;;;;;;9.23;4.45;;;33.80;55.40;;;;;;5106699;28;20644;-71
2021/06/22 10:39:25;;;;;;;8.63;4.20;;;33.90;55.10;;;;;;5107752;28;20191;-72
2021/06/22 10:41:52;;;;;;;7.97;4.20;;;34.10;54.70;;;;;;5114515;27;20229;-71
2021/06/22 10:44:37;;;;;;;3.72;3.40;;;34.10;53.90;;;;;;5120516;27;20671;-72
2021/06/22 10:47:29;;;;;;;7.00;4.00;;;34.20;54.70;;;;;;5115082;27;20306;-71
2021/06/22 10:50:25;;;;;;;5.68;4.20;;;34.20;54.30;;;;;;5100866;27;20288;-72
2021/06/22 10:52:58;;;;;;;7.57;4.50;;;34.20;54.90;;;;;;5121188;27;20199;-71
2021/06/22 10:56:04;;;;;;;5.00;4.45;;;34.20;55.60;;;;;;5122909;27;20281;-72
2021/06/22 10:58:32;;;;;;;12.05;5.03;;;34.10;56.00;;;;;;5116895;27;20611;-70
2021/06/22 11:01:19;;;;;;;9.48;4.78;;;34.10;56.50;;;;;;5112441;27;20203;-71
2021/06/22 11:04:05;;;;;;;7.47;4.80;;;33.90;56.70;;;;;;5106981;28;20270;-71
2021/06/22 11:06:32;;;;;;;8.93;5.63;;;33.90;57.10;;;;;;5110587;27;20214;-72
2021/06/22 11:09:21;;;;;;;9.48;5.43;;;33.90;57.40;;;;;;5110419;28;20544;-72
2021/06/22 11:11:48;;;;;;;7.07;4.90;;;33.80;57.30;;;;;;5101030;28;20254;-71
2021/06/22 11:14:17;;;;;;;4.75;4.30;;;33.70;57.50;;;;;;5111389;28;20274;-70
2021/06/22 11:16:44;;;;;;;10.38;5.25;;;33.70;57.80;;;;;;5110867;28;20206;-71
2021/06/22 11:19:14;;;;;;;9.73;4.78;;;33.90;57.70;;;;;;5111549;28;20251;-71
2021/06/22 11:21:55;;;;;;;18.65;5.88;;;34.00;57.30;;;;;;5112963;28;20734;-71
2021/06/22 11:24:25;;;;;;;8.80;4.60;;;34.00;56.60;;;;;;5114788;27;20188;-71
2021/06/22 11:27:11;;;;;;;9.43;4.70;;;33.80;57.30;;;;;;5115638;27;20227;-70
2021/06/22 11:29:50;;;;;;;9.00;4.70;;;33.60;56.80;;;;;;5116787;27;20310;-71
2021/06/22 11:32:44;;;;;;;11.75;5.72;;;33.60;57.10;;;;;;5115309;27;20195;-71
2021/06/22 11:35:17;;;;;;;13.18;4.65;;;33.30;57.10;;;;;;5113228;27;20215;-71
2021/06/22 11:37:46;;;;;;;15.35;5.20;;;33.10;57.30;;;;;;5106401;27;20244;-72
2021/06/22 11:40:24;;;;;;;10.70;4.18;;;33.00;57.50;;;;;;5113565;27;20529;-71
2021/06/22 11:43:09;;;;;;;11.90;4.25;;;32.90;57.70;;;;;;5118346;27;20204;-71
2021/06/22 11:45:39;;;;;;;15.80;4.53;;;32.70;57.90;;;;;;5106548;27;20251;-71
2021/06/22 11:48:06;;;;;;;6.70;4.68;;;32.50;58.10;;;;;;5103038;27;20274;-71
2021/06/22 11:50:49;;;;;;;12.20;4.15;;;32.20;58.50;;;;;;5105227;27;20192;-71
2021/06/22 11:53:16;;;;;;;9.25;4.45;;;31.90;59.10;;;;;;5107787;27;20619;-68
2021/06/22 11:55:54;;;;;;;4.28;3.88;;;31.60;59.80;;;;;;5103610;27;20200;-71
2021/06/22 11:58:29;;;;;;;6.70;3.90;;;31.20;60.50;;;;;;5123764;27;20614;-70
2021/06/22 12:00:59;;;;;;;6.45;3.47;;;30.80;61.30;;;;;;5107836;27;20637;-72
2021/06/22 12:03:33;;;;;;;3.97;3.55;;;30.50;62.00;;;;;;5106548;27;20227;-73
2021/06/22 12:06:10;;;;;;;6.00;3.80;;;30.20;62.50;;;;;;5105536;27;20562;-72
2021/06/22 12:08:39;;;;;;;5.32;3.17;;;30.00;63.30;;;;;;5103294;28;20202;-74
2021/06/22 12:11:07;;;;;;;5.32;4.07;;;29.90;63.80;;;;;;5110252;27;20230;-73
2021/06/22 12:13:40;;;;;;;3.95;3.58;;;29.60;64.40;;;;;;5109495;27;20227;-74
2021/06/22 12:16:15;;;;;;;7.00;4.78;;;29.50;64.80;;;;;;5109076;27;20655;-73
2021/06/22 12:18:42;;;;;;;6.63;4.25;;;29.30;65.30;;;;;;5109751;27;20260;-75
2021/06/22 12:21:11;;;;;;;4.80;4.05;;;29.10;66.00;;;;;;5111814;27;20211;-74
2021/06/22 12:23:40;;;;;;;4.22;3.83;;;28.90;66.50;;;;;;5106158;27;20260;-75
2021/06/22 12:26:08;;;;;;;6.88;3.58;;;28.70;67.20;;;;;;5105109;27;20306;-75
2021/06/22 12:28:36;;;;;;;6.78;3.40;;;28.50;68.00;;;;;;5107725;27;20223;-75
2021/06/22 12:31:04;;;;;;;8.35;3.65;;;28.30;68.80;;;;;;5104053;27;20628;-75
2021/06/22 12:33:37;;;;;;;4.80;3.53;;;28.20;69.80;;;;;;5110282;27;20246;-75
2021/06/22 12:36:07;;;;;;;5.05;2.92;;;28.00;70.80;;;;;;5114008;27;20287;-73
2021/06/22 12:38:38;;;;;;;11.00;3.60;;;27.90;72.00;;;;;;5105219;27;20188;-76
2021/06/22 12:41:07;;;;;;;7.25;3.63;;;27.80;73.70;;;;;;5111623;27;20223;-75
2021/06/22 12:43:43;;;;;;;3.97;3.20;;;27.70;75.10;;;;;;5106794;27;20229;-75
2021/06/22 12:46:11;;;;;;;6.90;3.63;;;27.60;76.00;;;;;;5105222;27;20215;-73
2021/06/22 12:48:38;;;;;;;3.60;3.00;;;27.60;77.60;;;;;;5108434;27;20321;-72
2021/06/22 12:51:06;;;;;;;7.20;3.58;;;27.50;78.60;;;;;;5121919;27;20311;-72
2021/06/22 12:53:35;;;;;;;8.52;4.30;;;27.50;81.00;;;;;;5117531;27;20199;-72
2021/06/22 12:56:11;;;;;;;9.95;3.42;;;27.40;84.30;;;;;;5109210;27;20200;-70
2021/06/22 12:58:46;;;;;;;5.47;3.40;;;27.30;85.50;;;;;;5103462;27;20256;-73
2021/06/22 13:01:30;;;;;;;5.90;3.88;;;27.30;88.10;;;;;;5102064;27;20265;-73
2021/06/22 13:03:57;;;;;;;8.20;3.58;;;27.10;90.70;;;;;;5102307;27;20188;-74
2021/06/22 13:06:29;;;;;;;4.88;2.90;;;27.10;91.70;;;;;;5105220;28;20230;-73
2021/06/22 13:08:59;;;;;;;9.23;3.22;;;27.00;93.20;;;;;;5103201;28;20220;-72
2021/06/22 13:11:29;;;;;;;5.28;3.00;;;27.00;93.90;;;;;;5105768;28;20231;-73
2021/06/22 13:14:15;;;;;;;10.18;3.75;;;27.00;95.10;;;;;;5105833;28;20295;-73
2021/06/22 13:16:44;;;;;;;7.38;3.70;;;27.00;96.10;;;;;;5103049;28;20674;-72
2021/06/22 13:19:13;;;;;;;5.60;3.65;;;27.00;98.00;;;;;;5106814;28;20722;-72
2021/06/22 13:21:47;;;;;;;15.15;3.83;;;26.90;98.90;;;;;;5107975;28;20199;-72
2021/06/22 13:24:39;;;;;;;6.38;3.50;;;26.90;99.70;;;;;;5106361;27;20399;-72